Time;durP1;ratioP1;P1;durP2;ratioP2;P2;SDS_P1;SDS_P2;PMS_P1;PMS_P2;Temp;Humidity;BMP_temperature;BMP_pressure;BME280_temperature;BME280_humidity;BME280_pressure;Samples;Min_cycle;Max_cycle;Signal;HPM_P1;HPM_P2
2022/01/15 00:01:29;;;;;;;0.10;0.10;;;;;;;;;;5070543;28;20131;-60
2022/01/15 00:03:54;;;;;;;0.10;0.10;;;;;;;;;;5072250;28;20021;-60
2022/01/15 00:06:20;;;;;;;0.10;0.10;;;;;;;;;;5054246;28;20045;-62
2022/01/15 00:08:45;;;;;;;0.75;0.75;;;;;;;;;;5072056;28;20396;-62
2022/01/15 00:11:10;;;;;;;0.10;0.10;;;;;;;;;;5054004;28;20020;-61
2022/01/15 00:13:39;;;;;;;0.10;0.10;;;;;;;;;;5072127;28;20037;-60
2022/01/15 00:16:11;;;;;;;0.10;0.10;;;;;;;;;;5021448;28;20036;-60
2022/01/15 00:18:41;;;;;;;0.90;0.85;;;;;;;;;;5053920;28;20083;-61
2022/01/15 00:21:07;;;;;;;0.10;0.10;;;;;;;;;;5054077;28;20093;-59
2022/01/15 00:23:33;;;;;;;0.10;0.10;;;;;;;;;;5055598;28;20033;-62
2022/01/15 00:25:58;;;;;;;0.40;0.40;;;;;;;;;;5068091;28;20037;-60
2022/01/15 00:28:24;;;;;;;0.10;0.10;;;;;;;;;;5071011;28;20037;-60
2022/01/15 00:30:49;;;;;;;0.10;0.10;;;;;;;;;;5075601;28;20071;-61
2022/01/15 00:33:14;;;;;;;0.10;0.10;;;;;;;;;;5075660;28;20024;-61
2022/01/15 00:35:40;;;;;;;1.00;1.00;;;;;;;;;;5075565;28;20028;-61
2022/01/15 00:38:05;;;;;;;0.98;0.98;;;;;;;;;;5075265;28;20414;-62
2022/01/15 00:40:31;;;;;;;0.10;0.10;;;;;;;;;;5075288;28;20036;-60
2022/01/15 00:42:57;;;;;;;0.10;0.10;;;;;;;;;;5075482;28;20079;-61
2022/01/15 00:45:22;;;;;;;0.10;0.10;;;;;;;;;;5075458;28;20036;-60
2022/01/15 00:47:49;;;;;;;0.10;0.10;;;;;;;;;;5057247;28;20043;-61
2022/01/15 00:50:14;;;;;;;0.10;0.10;;;;;;;;;;5073964;28;20509;-61
2022/01/15 00:52:42;;;;;;;0.57;0.57;;;;;;;;;;5075240;28;20111;-62
2022/01/15 00:55:08;;;;;;;0.10;0.10;;;;;;;;;;5056839;28;20483;-61
2022/01/15 00:57:33;;;;;;;0.43;0.43;;;;;;;;;;5075388;28;20046;-61
2022/01/15 00:59:59;;;;;;;1.20;1.10;;;;;;;;;;5074990;28;20037;-60
2022/01/15 01:02:24;;;;;;;0.10;0.10;;;;;;;;;;5057491;28;20031;-61
2022/01/15 01:04:49;;;;;;;0.10;0.10;;;;;;;;;;5075139;28;20047;-60
2022/01/15 01:07:15;;;;;;;0.40;0.40;;;;;;;;;;5074953;28;20033;-61
2022/01/15 01:20:49;;;;;;;0.20;0.20;;;;;;;;;;5073739;28;20032;-60
2022/01/15 01:23:14;;;;;;;0.73;0.73;;;;;;;;;;5074553;28;20075;-61
2022/01/15 01:25:44;;;;;;;0.10;0.10;;;;;;;;;;5074734;28;20484;-62
2022/01/15 01:28:20;;;;;;;;;;;;;;;;;;5040482;28;20063;-61
2022/01/15 01:31:18;;;;;;;0.10;0.10;;;;;;;;;;5039730;28;20011;-62
2022/01/15 01:33:36;;;;;;;0.93;0.93;;;;;;;;;;5074110;28;20051;-60
2022/01/15 01:36:35;;;;;;;0.10;0.10;;;;;;;;;;5040007;28;20044;-60
2022/01/15 01:39:06;;;;;;;0.10;0.10;;;;;;;;;;5074424;28;20516;-60
2022/01/15 01:41:36;;;;;;;0.10;0.10;;;;;;;;;;5039436;28;20048;-61
2022/01/15 01:44:03;;;;;;;0.10;0.10;;;;;;;;;;5056472;28;20162;-60
2022/01/15 01:46:40;;;;;;;0.10;0.10;;;;;;;;;;5056402;28;20045;-61
2022/01/15 01:49:08;;;;;;;2.08;1.98;;;;;;;;;;5074491;28;20037;-60
2022/01/15 01:51:35;;;;;;;0.10;0.10;;;;;;;;;;5072451;28;20464;-60
2022/01/15 01:54:06;;;;;;;0.10;0.10;;;;;;;;;;5056321;28;20097;-61
2022/01/15 01:56:32;;;;;;;0.40;0.40;;;;;;;;;;5056538;28;20115;-60
2022/01/15 01:58:59;;;;;;;0.10;0.10;;;;;;;;;;5039688;28;20037;-60
2022/01/15 02:01:25;;;;;;;0.10;0.10;;;;;;;;;;5056323;28;20491;-60
2022/01/15 02:03:51;;;;;;;0.10;0.10;;;;;;;;;;5072704;28;20087;-60
2022/01/15 02:06:19;;;;;;;0.10;0.10;;;;;;;;;;5056106;28;20075;-61
2022/01/15 02:08:46;;;;;;;0.10;0.10;;;;;;;;;;5039468;28;20510;-60
2022/01/15 02:11:12;;;;;;;0.10;0.10;;;;;;;;;;5039344;28;20020;-60
2022/01/15 02:13:39;;;;;;;0.20;0.20;;;;;;;;;;5039320;28;20035;-60
2022/01/15 02:16:05;;;;;;;0.35;0.35;;;;;;;;;;5074038;28;20036;-60
2022/01/15 02:18:33;;;;;;;2.38;2.28;;;;;;;;;;5055809;28;20541;-62
2022/01/15 02:23:41;;;;;;;0.10;0.10;;;;;;;;;;5056087;28;20094;-60
2022/01/15 02:26:08;;;;;;;0.10;0.10;;;;;;;;;;5039404;28;20032;-60
2022/01/15 02:28:38;;;;;;;0.10;0.10;;;;;;;;;;5039525;28;20429;-61
2022/01/15 02:31:23;;;;;;;0.10;0.10;;;;;;;;;;5055599;28;20365;-61
2022/01/15 02:33:50;;;;;;;0.10;0.10;;;;;;;;;;5055825;28;20036;-61
2022/01/15 02:36:17;;;;;;;0.10;0.10;;;;;;;;;;5055540;28;20037;-61
2022/01/15 02:38:43;;;;;;;0.10;0.10;;;;;;;;;;5073699;28;20029;-61
2022/01/15 02:41:09;;;;;;;0.10;0.10;;;;;;;;;;5055535;28;20044;-60
2022/01/15 02:43:35;;;;;;;2.25;2.10;;;;;;;;;;5071895;28;20067;-63
2022/01/15 02:46:18;;;;;;;0.10;0.10;;;;;;;;;;5055438;28;20071;-60
2022/01/15 02:48:45;;;;;;;0.40;0.40;;;;;;;;;;5073627;28;20029;-61
2022/01/15 02:51:12;;;;;;;0.10;0.10;;;;;;;;;;5055545;28;20048;-61
2022/01/15 02:53:37;;;;;;;0.65;0.65;;;;;;;;;;5054241;28;20033;-60
2022/01/15 02:56:03;;;;;;;0.10;0.10;;;;;;;;;;5073199;28;20035;-60
2022/01/15 02:58:28;;;;;;;0.10;0.10;;;;;;;;;;5073182;28;20037;-61
2022/01/15 03:00:54;;;;;;;0.10;0.10;;;;;;;;;;5073457;28;20036;-61
2022/01/15 03:03:20;;;;;;;0.10;0.10;;;;;;;;;;5072096;28;20033;-61
2022/01/15 03:05:47;;;;;;;0.10;0.10;;;;;;;;;;5055200;28;20066;-61
2022/01/15 03:08:12;;;;;;;0.55;0.55;;;;;;;;;;5073083;28;20115;-60
2022/01/15 03:10:38;;;;;;;0.10;0.10;;;;;;;;;;5073169;28;20453;-60
2022/01/15 03:13:10;;;;;;;0.28;0.28;;;;;;;;;;5055077;28;20492;-60
2022/01/15 03:15:36;;;;;;;0.10;0.10;;;;;;;;;;5038740;28;20123;-60
2022/01/15 03:18:02;;;;;;;0.35;0.35;;;;;;;;;;5073098;28;20536;-60
2022/01/15 03:20:27;;;;;;;0.10;0.10;;;;;;;;;;5054933;28;20105;-60
2022/01/15 03:22:53;;;;;;;0.10;0.10;;;;;;;;;;5072889;28;20021;-60
2022/01/15 03:25:19;;;;;;;0.10;0.10;;;;;;;;;;5054935;28;20094;-61
2022/01/15 03:27:44;;;;;;;0.10;0.10;;;;;;;;;;5072399;28;20028;-61
2022/01/15 03:30:11;;;;;;;0.20;0.20;;;;;;;;;;5072793;28;20583;-60
2022/01/15 03:32:42;;;;;;;0.20;0.20;;;;;;;;;;5038248;28;20442;-60
2022/01/15 03:35:08;;;;;;;2.33;1.50;;;;;;;;;;5037864;28;20036;-62
2022/01/15 03:37:34;;;;;;;0.10;0.10;;;;;;;;;;5038241;28;20043;-60
2022/01/15 03:40:00;;;;;;;0.10;0.10;;;;;;;;;;5072581;28;20040;-61
2022/01/15 03:42:25;;;;;;;4.40;4.13;;;;;;;;;;5037984;28;20028;-60
2022/01/15 03:44:51;;;;;;;0.82;0.82;;;;;;;;;;5072029;28;20029;-60
2022/01/15 03:47:16;;;;;;;0.43;0.43;;;;;;;;;;5072673;28;20032;-61
2022/01/15 03:49:42;;;;;;;0.30;0.30;;;;;;;;;;5054674;28;20025;-61
2022/01/15 03:52:09;;;;;;;0.40;0.40;;;;;;;;;;5072482;28;20061;-60
2022/01/15 03:54:35;;;;;;;0.10;0.10;;;;;;;;;;5037996;28;20024;-60
2022/01/15 03:57:01;;;;;;;0.10;0.10;;;;;;;;;;5037747;28;20041;-60
2022/01/15 03:59:27;;;;;;;0.10;0.10;;;;;;;;;;5072376;28;20048;-60
2022/01/15 04:01:52;;;;;;;0.10;0.10;;;;;;;;;;5071404;28;20079;-61
2022/01/15 04:04:18;;;;;;;0.20;0.20;;;;;;;;;;5050089;28;20059;-60
2022/01/15 04:06:44;;;;;;;0.10;0.10;;;;;;;;;;5068279;28;20037;-61
2022/01/15 04:09:10;;;;;;;0.10;0.10;;;;;;;;;;5068655;28;20302;-61
2022/01/15 04:11:36;;;;;;;0.88;0.68;;;;;;;;;;5050603;28;20037;-61
2022/01/15 04:14:02;;;;;;;0.10;0.10;;;;;;;;;;5068508;28;20033;-61
2022/01/15 04:16:30;;;;;;;0.30;0.30;;;;;;;;;;5068380;28;20044;-61
2022/01/15 04:18:57;;;;;;;0.10;0.10;;;;;;;;;;5068141;28;20028;-60
2022/01/15 04:21:23;;;;;;;0.25;0.25;;;;;;;;;;5050536;28;20507;-61
2022/01/15 04:23:49;;;;;;;0.10;0.10;;;;;;;;;;5050472;28;20032;-62
2022/01/15 04:26:14;;;;;;;0.10;0.10;;;;;;;;;;5068018;28;20036;-60
2022/01/15 04:28:41;;;;;;;0.15;0.15;;;;;;;;;;5067894;28;20028;-60
2022/01/15 04:31:08;;;;;;;0.10;0.10;;;;;;;;;;5033960;28;20033;-61
2022/01/15 04:33:35;;;;;;;0.10;0.10;;;;;;;;;;5033687;28;20037;-62
2022/01/15 04:36:01;;;;;;;0.20;0.20;;;;;;;;;;5050015;28;20507;-61
2022/01/15 04:38:28;;;;;;;0.10;0.10;;;;;;;;;;5033371;28;20039;-61
2022/01/15 04:40:54;;;;;;;0.30;0.30;;;;;;;;;;5032775;28;20040;-62
2022/01/15 04:43:19;;;;;;;0.10;0.10;;;;;;;;;;5050310;28;20028;-61
2022/01/15 04:45:45;;;;;;;0.10;0.10;;;;;;;;;;5050092;28;20032;-63
2022/01/15 04:48:10;;;;;;;0.10;0.10;;;;;;;;;;5068040;28;20063;-61
2022/01/15 04:50:36;;;;;;;0.10;0.10;;;;;;;;;;5049890;28;20041;-64
2022/01/15 04:53:01;;;;;;;0.10;0.10;;;;;;;;;;5049995;28;20039;-60
2022/01/15 04:55:27;;;;;;;0.10;0.10;;;;;;;;;;5067881;28;20036;-61
2022/01/15 04:57:53;;;;;;;0.10;0.10;;;;;;;;;;5033288;28;20059;-61
2022/01/15 05:00:18;;;;;;;0.10;0.10;;;;;;;;;;5067790;28;20127;-61
2022/01/15 05:02:44;;;;;;;0.10;0.10;;;;;;;;;;5066902;28;20029;-60
2022/01/15 05:05:10;;;;;;;0.10;0.10;;;;;;;;;;5067638;28;20361;-60
2022/01/15 05:07:36;;;;;;;0.10;0.10;;;;;;;;;;5032913;28;20060;-68
2022/01/15 05:10:02;;;;;;;1.77;1.75;;;;;;;;;;5067429;28;20477;-61
2022/01/15 05:14:53;;;;;;;0.10;0.10;;;;;;;;;;5067375;28;20028;-60
2022/01/15 05:17:18;;;;;;;0.10;0.10;;;;;;;;;;5071047;28;20040;-66
2022/01/15 05:19:44;;;;;;;0.10;0.10;;;;;;;;;;5071431;28;20024;-61
2022/01/15 05:22:09;;;;;;;0.38;0.38;;;;;;;;;;5052689;28;20044;-61
2022/01/15 05:24:35;;;;;;;0.10;0.10;;;;;;;;;;5070455;28;20040;-61
2022/01/15 05:27:01;;;;;;;0.10;0.10;;;;;;;;;;5036295;28;20144;-60
2022/01/15 05:29:26;;;;;;;0.55;0.55;;;;;;;;;;5036103;28;20029;-61
2022/01/15 05:31:52;;;;;;;0.10;0.10;;;;;;;;;;5052806;28;20086;-59
2022/01/15 05:34:18;;;;;;;0.10;0.10;;;;;;;;;;5070971;28;20044;-59
2022/01/15 05:36:43;;;;;;;0.10;0.10;;;;;;;;;;5070673;28;20110;-62
2022/01/15 05:39:09;;;;;;;0.10;0.10;;;;;;;;;;5070818;28;20041;-61
2022/01/15 05:41:34;;;;;;;0.10;0.10;;;;;;;;;;5052735;28;20068;-61
2022/01/15 05:44:02;;;;;;;0.10;0.10;;;;;;;;;;5070691;28;20510;-61
2022/01/15 05:46:29;;;;;;;1.13;1.13;;;;;;;;;;5036019;28;20029;-60
2022/01/15 05:48:54;;;;;;;0.10;0.10;;;;;;;;;;5070410;28;20041;-61
2022/01/15 05:51:20;;;;;;;0.10;0.10;;;;;;;;;;5070591;28;20078;-60
2022/01/15 05:53:45;;;;;;;0.10;0.10;;;;;;;;;;5070417;28;20040;-61
2022/01/15 05:56:11;;;;;;;0.10;0.10;;;;;;;;;;5070279;28;20476;-61
2022/01/15 05:58:36;;;;;;;0.10;0.10;;;;;;;;;;5070341;28;20124;-60
2022/01/15 06:01:02;;;;;;;0.10;0.10;;;;;;;;;;5070316;28;20866;-64
2022/01/15 06:03:28;;;;;;;0.10;0.10;;;;;;;;;;5035871;28;20043;-60
2022/01/15 06:05:53;;;;;;;0.10;0.10;;;;;;;;;;5036221;28;20071;-60
2022/01/15 06:08:19;;;;;;;0.10;0.10;;;;;;;;;;5070247;28;20058;-61
2022/01/15 06:10:44;;;;;;;0.30;0.30;;;;;;;;;;5069700;28;20033;-60
2022/01/15 06:13:10;;;;;;;0.20;0.20;;;;;;;;;;5052288;28;20043;-61
2022/01/15 06:15:36;;;;;;;0.13;0.13;;;;;;;;;;5070631;28;20476;-60
2022/01/15 06:18:01;;;;;;;0.10;0.10;;;;;;;;;;5070012;28;20036;-60
2022/01/15 06:20:27;;;;;;;0.10;0.10;;;;;;;;;;5070267;28;20082;-61
2022/01/15 06:22:52;;;;;;;0.10;0.10;;;;;;;;;;5069673;28;20043;-61
2022/01/15 06:25:18;;;;;;;0.40;0.40;;;;;;;;;;5069943;28;20071;-67
2022/01/15 06:27:43;;;;;;;0.20;0.20;;;;;;;;;;5035140;28;20024;-61
2022/01/15 06:30:09;;;;;;;0.10;0.10;;;;;;;;;;5069637;28;20033;-61
2022/01/15 06:32:36;;;;;;;0.10;0.10;;;;;;;;;;5051531;28;20051;-61
2022/01/15 06:35:09;;;;;;;0.20;0.20;;;;;;;;;;5035721;28;20380;-62
2022/01/15 06:37:35;;;;;;;1.55;1.48;;;;;;;;;;5052045;28;20040;-61
2022/01/15 06:40:00;;;;;;;0.20;0.20;;;;;;;;;;5051625;28;20082;-61
2022/01/15 06:42:26;;;;;;;0.10;0.10;;;;;;;;;;5034966;28;20036;-62
2022/01/15 06:44:52;;;;;;;0.10;0.10;;;;;;;;;;5051150;28;20032;-62
2022/01/15 06:47:17;;;;;;;0.10;0.10;;;;;;;;;;5051337;28;20042;-60
2022/01/15 06:49:43;;;;;;;0.10;0.10;;;;;;;;;;5069695;28;20090;-61
2022/01/15 06:52:08;;;;;;;0.10;0.10;;;;;;;;;;5051704;28;20044;-64
2022/01/15 06:54:34;;;;;;;0.80;0.80;;;;;;;;;;5069318;28;20031;-61
2022/01/15 06:56:59;;;;;;;9.57;2.85;;;;;;;;;;5069652;28;20048;-60
2022/01/15 06:59:25;;;;;;;1.83;1.73;;;;;;;;;;5069199;28;20446;-60
2022/01/15 07:01:51;;;;;;;0.10;0.10;;;;;;;;;;5069176;28;20021;-61
2022/01/15 07:04:16;;;;;;;0.40;0.40;;;;;;;;;;5051425;28;20098;-63
2022/01/15 07:06:42;;;;;;;0.10;0.10;;;;;;;;;;5069016;28;20041;-61
2022/01/15 07:09:09;;;;;;;0.10;0.10;;;;;;;;;;5089355;28;20073;-62
2022/01/15 07:11:35;;;;;;;0.22;0.22;;;;;;;;;;5042954;28;20025;-62
2022/01/15 07:14:00;;;;;;;0.10;0.10;;;;;;;;;;5076234;28;20055;-61
2022/01/15 07:16:26;;;;;;;1.08;0.95;;;;;;;;;;5088271;28;20169;-63
2022/01/15 07:18:52;;;;;;;0.68;0.68;;;;;;;;;;5069470;28;20420;-61
2022/01/15 07:21:20;;;;;;;0.20;0.20;;;;;;;;;;5070858;28;20036;-65
2022/01/15 07:23:45;;;;;;;1.17;0.85;;;;;;;;;;5082433;28;20483;-61
2022/01/15 07:26:11;;;;;;;0.10;0.10;;;;;;;;;;5075321;28;20035;-60
2022/01/15 07:28:37;;;;;;;0.10;0.10;;;;;;;;;;5081574;28;20035;-61
2022/01/15 07:31:02;;;;;;;0.50;0.50;;;;;;;;;;5074946;28;20031;-61
2022/01/15 07:33:28;;;;;;;0.80;0.80;;;;;;;;;;5058181;28;20032;-61
2022/01/15 07:35:54;;;;;;;1.35;1.20;;;;;;;;;;5067850;28;20028;-62
2022/01/15 07:38:21;;;;;;;0.70;0.60;;;;;;;;;;5033998;28;20044;-63
2022/01/15 07:40:47;;;;;;;0.20;0.20;;;;;;;;;;5046966;28;20031;-61
2022/01/15 07:43:13;;;;;;;0.38;0.38;;;;;;;;;;5043698;28;20052;-61
2022/01/15 07:45:39;;;;;;;1.00;1.00;;;;;;;;;;5078306;28;20109;-60
2022/01/15 07:48:05;;;;;;;1.70;1.60;;;;;;;;;;5041549;28;20479;-61
2022/01/15 07:50:31;;;;;;;0.73;0.73;;;;;;;;;;5059546;28;20043;-60
2022/01/15 07:52:57;;;;;;;0.30;0.30;;;;;;;;;;5077929;28;20019;-63
2022/01/15 07:55:25;;;;;;;0.20;0.20;;;;;;;;;;5056098;28;20040;-67
2022/01/15 07:57:56;;;;;;;0.30;0.30;;;;;;;;;;5051270;28;20029;-61
2022/01/15 08:00:26;;;;;;;0.10;0.10;;;;;;;;;;5079526;28;20483;-61
2022/01/15 08:02:56;;;;;;;0.20;0.20;;;;;;;;;;5067347;28;20391;-62
2022/01/15 08:05:26;;;;;;;0.20;0.20;;;;;;;;;;5062521;28;20066;-73
2022/01/15 08:07:53;;;;;;;2.15;2.05;;;;;;;;;;5063864;28;20418;-71
2022/01/15 08:10:23;;;;;;;0.10;0.10;;;;;;;;;;5059871;28;20106;-72
2022/01/15 08:12:51;;;;;;;0.20;0.20;;;;;;;;;;5061389;28;20123;-74
2022/01/15 08:15:20;;;;;;;0.17;0.17;;;;;;;;;;5042197;28;20028;-74
2022/01/15 08:17:50;;;;;;;1.33;1.20;;;;;;;;;;5068618;28;20380;-72
2022/01/15 08:20:19;;;;;;;0.20;0.20;;;;;;;;;;5083516;28;20468;-73
2022/01/15 08:22:47;;;;;;;0.50;0.50;;;;;;;;;;5071708;28;20031;-70
2022/01/15 08:25:18;;;;;;;0.30;0.30;;;;;;;;;;5042331;28;20032;-73
2022/01/15 08:27:47;;;;;;;0.40;0.40;;;;;;;;;;5048391;28;20072;-71
2022/01/15 08:30:17;;;;;;;5.72;2.40;;;;;;;;;;5050286;28;20548;-74
2022/01/15 08:32:45;;;;;;;1.35;1.20;;;;;;;;;;5048929;28;20522;-74
2022/01/15 08:35:12;;;;;;;0.20;0.20;;;;;;;;;;5055554;28;20036;-73
2022/01/15 08:37:40;;;;;;;0.20;0.20;;;;;;;;;;5068429;28;20583;-71
2022/01/15 08:40:12;;;;;;;0.20;0.20;;;;;;;;;;5086755;28;20040;-73
2022/01/15 08:42:41;;;;;;;0.30;0.30;;;;;;;;;;5068326;28;20832;-73
2022/01/15 08:45:07;;;;;;;0.25;0.25;;;;;;;;;;5084956;28;20040;-73
2022/01/15 08:47:33;;;;;;;0.40;0.40;;;;;;;;;;5066508;28;20028;-72
2022/01/15 08:50:00;;;;;;;0.20;0.20;;;;;;;;;;5050673;28;20036;-72
2022/01/15 08:52:25;;;;;;;0.30;0.30;;;;;;;;;;5054722;28;20123;-72
2022/01/15 08:54:51;;;;;;;3.30;3.10;;;;;;;;;;5073053;28;20170;-71
2022/01/15 08:57:16;;;;;;;0.57;0.57;;;;;;;;;;5090276;28;20387;-73
2022/01/15 08:59:42;;;;;;;0.30;0.30;;;;;;;;;;5071474;28;20036;-72
2022/01/15 09:02:08;;;;;;;0.30;0.30;;;;;;;;;;5091341;28;20035;-72
2022/01/15 09:04:34;;;;;;;0.30;0.30;;;;;;;;;;5054025;28;20028;-73
2022/01/15 09:06:59;;;;;;;0.47;0.47;;;;;;;;;;5070887;28;20142;-73
2022/01/15 09:09:25;;;;;;;0.30;0.30;;;;;;;;;;5071049;28;20380;-73
2022/01/15 09:11:50;;;;;;;1.38;1.27;;;;;;;;;;5071107;28;20047;-73
2022/01/15 09:14:16;;;;;;;0.73;0.73;;;;;;;;;;5053224;28;20017;-71
2022/01/15 09:16:41;;;;;;;0.30;0.30;;;;;;;;;;5082411;28;20040;-72
2022/01/15 09:19:07;;;;;;;0.85;0.85;;;;;;;;;;5072857;28;20060;-72
2022/01/15 09:21:33;;;;;;;2.13;1.95;;;;;;;;;;5090796;28;20028;-71
2022/01/15 09:23:58;;;;;;;0.30;0.30;;;;;;;;;;5072920;28;20032;-71
2022/01/15 09:26:46;;;;;;;0.30;0.30;;;;;;;;;;5091329;28;20067;-70
2022/01/15 09:31:56;;;;;;;0.55;0.55;;;;;;;;;;5090986;28;20031;-73
2022/01/15 09:34:21;;;;;;;3.22;2.63;;;;;;;;;;5089829;28;20433;-73
2022/01/15 09:36:47;;;;;;;0.60;0.60;;;;;;;;;;5089516;28;20032;-73
2022/01/15 09:39:12;;;;;;;1.70;1.42;;;;;;;;;;5090008;28;20025;-73
2022/01/15 09:41:41;;;;;;;25.52;3.45;;;;;;;;;;5090196;28;20430;-72
2022/01/15 09:44:07;;;;;;;1.20;1.17;;;;;;;;;;5071651;28;20122;-73
2022/01/15 09:46:32;;;;;;;0.28;0.28;;;;;;;;;;5090192;28;20119;-73
2022/01/15 09:48:58;;;;;;;0.30;0.30;;;;;;;;;;5090392;28;20483;-73
2022/01/15 09:51:24;;;;;;;2.67;2.10;;;;;;;;;;5072574;28;20408;-72
2022/01/15 09:53:49;;;;;;;4.72;2.90;;;;;;;;;;5090829;28;20040;-72
2022/01/15 09:56:15;;;;;;;1.77;1.67;;;;;;;;;;5088993;28;20490;-73
2022/01/15 09:58:40;;;;;;;0.73;0.73;;;;;;;;;;5088692;28;20072;-72
2022/01/15 10:01:06;;;;;;;3.63;2.53;;;;;;;;;;5070013;28;20471;-72
2022/01/15 10:03:31;;;;;;;0.77;0.70;;;;;;;;;;5070410;28;20039;-73
2022/01/15 10:06:02;;;;;;;3.17;1.80;;;;;;;;;;5070747;28;20790;-74
2022/01/15 10:08:28;;;;;;;3.15;2.25;;;;;;;;;;5070533;28;20036;-72
2022/01/15 10:10:53;;;;;;;4.72;1.73;;;;;;;;;;5089820;28;20064;-72
2022/01/15 10:13:21;;;;;;;2.50;1.95;;;;;;;;;;5090376;28;20047;-72
2022/01/15 10:15:47;;;;;;;1.52;1.23;;;;;;;;;;5072402;28;20028;-72
2022/01/15 10:18:27;;;;;;;0.60;0.60;;;;;;;;;;5072461;28;20040;-73
2022/01/15 10:20:54;;;;;;;0.20;0.20;;;;;;;;;;5090556;28;21009;-72
2022/01/15 10:23:20;;;;;;;2.35;1.40;;;;;;;;;;5071906;28;20032;-72
2022/01/15 10:26:05;;;;;;;0.40;0.40;;;;;;;;;;5071771;28;20373;-72
2022/01/15 10:28:49;;;;;;;2.95;1.70;;;;;;;;;;5090163;28;20039;-73
2022/01/15 10:31:18;;;;;;;2.85;1.63;;;;;;;;;;5089728;28;20047;-72
2022/01/15 10:33:44;;;;;;;3.30;2.03;;;;;;;;;;5071819;28;20027;-72
2022/01/15 10:36:19;;;;;;;6.30;3.05;;;;;;;;;;5090246;28;20032;-72
2022/01/15 10:38:44;;;;;;;7.22;3.80;;;;;;;;;;5071265;28;20066;-72
2022/01/15 10:41:28;;;;;;;1.75;0.80;;;;;;;;;;5072477;28;20064;-72
2022/01/15 10:43:53;;;;;;;0.52;0.28;;;;;;;;;;5069749;28;20033;-72
2022/01/15 10:46:30;;;;;;;0.93;0.93;;;;;;;;;;5069719;28;20032;-72
2022/01/15 10:48:56;;;;;;;3.50;1.92;;;;;;;;;;5051761;28;20067;-72
2022/01/15 10:51:22;;;;;;;0.77;0.70;;;;;;;;;;5069482;28;20465;-72
2022/01/15 10:53:47;;;;;;;0.30;0.30;;;;;;;;;;5035006;28;20130;-72
2022/01/15 10:56:14;;;;;;;0.47;0.47;;;;;;;;;;5069703;28;20491;-73
2022/01/15 10:58:42;;;;;;;0.77;0.60;;;;;;;;;;5034614;28;20545;-72
2022/01/15 11:01:11;;;;;;;3.60;2.63;;;;;;;;;;5051383;28;20028;-71
2022/01/15 11:03:37;;;;;;;0.80;0.77;;;;;;;;;;5034765;28;20468;-72
2022/01/15 11:06:03;;;;;;;0.60;0.60;;;;;;;;;;5051298;28;20687;-72
2022/01/15 11:08:29;;;;;;;0.88;0.88;;;;;;;;;;5069485;28;20119;-72
2022/01/15 11:11:03;;;;;;;3.03;2.08;;;;;;;;;;5050937;28;20072;-71
2022/01/15 11:13:42;;;;;;;0.52;0.52;;;;;;;;;;5068325;28;20107;-72
2022/01/15 11:16:14;;;;;;;0.30;0.30;;;;;;;;;;5069391;28;20402;-71
2022/01/15 11:18:43;;;;;;;0.93;0.93;;;;;;;;;;5050440;28;20029;-71
2022/01/15 11:21:13;;;;;;;3.92;2.35;;;;;;;;;;5069145;28;20047;-72
2022/01/15 11:23:39;;;;;;;0.30;0.30;;;;;;;;;;5057583;28;20028;-71
2022/01/15 11:26:06;;;;;;;0.30;0.30;;;;;;;;;;5089203;28;20044;-71
2022/01/15 11:28:33;;;;;;;0.20;0.20;;;;;;;;;;5088733;28;20027;-71
2022/01/15 11:31:00;;;;;;;1.75;1.65;;;;;;;;;;5070798;28;20028;-71
2022/01/15 11:33:30;;;;;;;1.17;1.05;;;;;;;;;;5084236;28;20036;-70
2022/01/15 11:35:56;;;;;;;4.07;2.58;;;;;;;;;;5088902;28;20036;-71
2022/01/15 11:38:33;;;;;;;1.75;1.38;;;;;;;;;;5070968;28;20031;-71
2022/01/15 11:40:59;;;;;;;2.90;1.20;;;;;;;;;;5064857;28;20435;-72
2022/01/15 11:43:25;;;;;;;0.93;0.90;;;;;;;;;;5060760;28;20111;-71
2022/01/15 11:45:56;;;;;;;0.98;0.70;;;;;;;;;;5077087;28;20468;-69
2022/01/15 11:48:27;;;;;;;2.40;1.70;;;;;;;;;;5058490;28;20036;-69
2022/01/15 11:51:11;;;;;;;1.48;1.33;;;;;;;;;;5053313;28;20031;-69
2022/01/15 11:53:48;;;;;;;0.85;0.82;;;;;;;;;;5060323;28;20033;-70
2022/01/15 11:56:20;;;;;;;3.40;2.42;;;;;;;;;;5045540;28;20479;-69
2022/01/15 11:58:49;;;;;;;0.60;0.60;;;;;;;;;;5077091;28;20036;-70
2022/01/15 12:01:48;;;;;;;0.40;0.40;;;;;;;;;;5053761;28;20028;-70
2022/01/15 12:04:24;;;;;;;0.30;0.30;;;;;;;;;;5035299;28;20446;-70
2022/01/15 12:07:01;;;;;;;2.13;1.38;;;;;;;;;;5050062;28;20593;-72
2022/01/15 12:09:43;;;;;;;2.05;1.95;;;;;;;;;;5086625;28;20036;-71
2022/01/15 12:12:34;;;;;;;0.30;0.30;;;;;;;;;;5088501;28;20029;-73
2022/01/15 12:15:01;;;;;;;0.57;0.50;;;;;;;;;;5070513;28;20087;-70
2022/01/15 12:17:35;;;;;;;0.20;0.20;;;;;;;;;;5088586;28;20028;-70
2022/01/15 12:20:21;;;;;;;0.30;0.30;;;;;;;;;;5088457;28;20392;-70
2022/01/15 12:22:48;;;;;;;0.28;0.28;;;;;;;;;;5059274;28;20111;-70
2022/01/15 12:25:17;;;;;;;1.45;1.35;;;;;;;;;;5090146;28;20082;-70
2022/01/15 12:27:45;;;;;;;0.40;0.40;;;;;;;;;;5092132;28;20036;-70
2022/01/15 12:30:11;;;;;;;2.25;2.15;;;;;;;;;;5067648;28;20115;-69
2022/01/15 12:32:40;;;;;;;3.72;1.83;;;;;;;;;;5069980;28;20119;-70
2022/01/15 12:35:13;;;;;;;1.13;0.98;;;;;;;;;;5074049;28;20027;-70
2022/01/15 12:37:58;;;;;;;3.92;3.72;;;;;;;;;;5074515;28;20093;-71
2022/01/15 12:40:31;;;;;;;0.30;0.30;;;;;;;;;;5091992;28;20056;-70
2022/01/15 12:42:58;;;;;;;2.03;1.23;;;;;;;;;;5057038;28;20040;-72
2022/01/15 12:45:25;;;;;;;2.08;1.52;;;;;;;;;;5057192;28;20036;-72
2022/01/15 12:47:52;;;;;;;2.20;1.95;;;;;;;;;;5073219;28;20031;-70
2022/01/15 12:50:17;;;;;;;1.20;1.10;;;;;;;;;;5056695;28;20506;-70
2022/01/15 12:52:43;;;;;;;3.03;1.95;;;;;;;;;;5091472;28;20527;-71
2022/01/15 12:55:09;;;;;;;0.50;0.50;;;;;;;;;;5091495;28;20032;-71
2022/01/15 12:57:43;;;;;;;0.40;0.40;;;;;;;;;;5073606;28;20077;-72
2022/01/15 13:00:13;;;;;;;1.88;1.73;;;;;;;;;;5056692;28;20056;-70
2022/01/15 13:02:39;;;;;;;0.90;0.85;;;;;;;;;;5073015;28;20043;-71
2022/01/15 13:05:06;;;;;;;0.30;0.30;;;;;;;;;;5091633;28;20020;-71
2022/01/15 13:07:51;;;;;;;1.38;1.17;;;;;;;;;;5056598;28;20044;-71
2022/01/15 13:10:48;;;;;;;2.63;1.83;;;;;;;;;;5073033;28;20043;-71
2022/01/15 13:13:34;;;;;;;1.80;1.52;;;;;;;;;;5072546;28;20090;-71
2022/01/15 13:15:59;;;;;;;2.08;1.65;;;;;;;;;;5090708;28;20044;-70
2022/01/15 13:18:28;;;;;;;2.88;1.65;;;;;;;;;;5091420;28;20036;-69
2022/01/15 13:20:56;;;;;;;0.38;0.38;;;;;;;;;;5055708;28;20032;-71
2022/01/15 13:23:25;;;;;;;1.02;0.90;;;;;;;;;;5068426;28;20064;-71
2022/01/15 13:25:51;;;;;;;7.22;4.95;;;;;;;;;;5055341;28;20554;-73
2022/01/15 13:28:17;;;;;;;11.38;2.05;;;;;;;;;;5081678;28;20093;-72
2022/01/15 13:30:47;;;;;;;0.77;0.55;;;;;;;;;;5071357;28;20070;-71
2022/01/15 13:33:12;;;;;;;4.22;2.80;;;;;;;;;;5044126;28;20117;-70
2022/01/15 13:35:39;;;;;;;6.20;3.85;;;;;;;;;;5089575;28;20505;-72
2022/01/15 13:38:08;;;;;;;2.33;2.22;;;;;;;;;;5071237;28;20051;-71
2022/01/15 13:40:35;;;;;;;0.40;0.40;;;;;;;;;;5062547;28;20043;-71
2022/01/15 13:43:00;;;;;;;0.43;0.43;;;;;;;;;;5072225;28;20523;-72
2022/01/15 13:45:28;;;;;;;7.25;3.50;;;;;;;;;;5071201;28;20052;-71
2022/01/15 13:48:10;;;;;;;0.30;0.30;;;;;;;;;;5053686;28;20065;-71
2022/01/15 13:53:30;;;;;;;1.77;1.15;;;;;;;;;;5088160;28;20032;-71
2022/01/15 13:56:08;;;;;;;5.15;3.10;;;;;;;;;;5069797;28;20024;-72
2022/01/15 13:58:33;;;;;;;0.30;0.30;;;;;;;;;;5087999;28;20042;-71
2022/01/15 14:01:14;;;;;;;4.95;3.22;;;;;;;;;;5070670;28;20033;-72
2022/01/15 14:03:43;;;;;;;0.30;0.30;;;;;;;;;;5089960;28;20027;-72
2022/01/15 14:06:12;;;;;;;2.50;2.30;;;;;;;;;;5055149;28;20085;-72
2022/01/15 14:08:41;;;;;;;4.13;2.67;;;;;;;;;;5070060;28;20392;-72
2022/01/15 14:11:10;;;;;;;2.40;2.00;;;;;;;;;;5088740;28;20494;-72
2022/01/15 14:13:36;;;;;;;3.67;2.08;;;;;;;;;;5076170;28;20029;-74
2022/01/15 14:16:17;;;;;;;7.55;4.50;;;;;;;;;;5069071;28;20368;-73
2022/01/15 14:18:46;;;;;;;7.93;4.30;;;;;;;;;;5050623;28;20040;-73
2022/01/15 14:21:38;;;;;;;6.95;3.33;;;;;;;;;;5069354;28;20353;-72
2022/01/15 14:24:16;;;;;;;7.78;4.97;;;;;;;;;;5068770;28;20459;-75
2022/01/15 14:26:46;;;;;;;0.90;0.88;;;;;;;;;;5068942;28;20036;-74
2022/01/15 14:29:12;;;;;;;5.15;3.10;;;;;;;;;;5051377;28;20383;-73
2022/01/15 14:31:37;;;;;;;5.07;3.95;;;;;;;;;;5052390;28;20048;-75
2022/01/15 14:34:05;;;;;;;5.60;2.08;;;;;;;;;;5070549;28;20043;-76
2022/01/15 14:36:31;;;;;;;9.63;6.15;;;;;;;;;;5052096;28;20534;-76
2022/01/15 14:39:04;;;;;;;3.15;2.40;;;;;;;;;;5052053;28;20085;-76
2022/01/15 14:41:34;;;;;;;7.60;4.35;;;;;;;;;;5035237;28;20045;-73
2022/01/15 14:44:05;;;;;;;5.03;3.47;;;;;;;;;;5035346;28;20032;-76
2022/01/15 14:46:31;;;;;;;6.47;2.65;;;;;;;;;;5069616;28;20044;-75
2022/01/15 14:48:58;;;;;;;2.78;2.05;;;;;;;;;;5069739;28;20420;-73
2022/01/15 14:51:27;;;;;;;1.27;1.17;;;;;;;;;;5051997;28;20077;-77
2022/01/15 14:53:53;;;;;;;2.53;1.48;;;;;;;;;;5052000;28;20064;-76
2022/01/15 14:56:18;;;;;;;8.52;6.35;;;;;;;;;;5051839;28;20908;-78
2022/01/15 14:58:46;;;;;;;2.38;1.50;;;;;;;;;;5069466;28;20488;-74
2022/01/15 15:01:13;;;;;;;1.43;1.27;;;;;;;;;;5051720;28;20520;-76
2022/01/15 15:03:38;;;;;;;1.80;1.65;;;;;;;;;;5052086;28;20059;-74
2022/01/15 15:06:04;;;;;;;6.63;4.10;;;;;;;;;;5068593;28;20067;-78
2022/01/15 15:08:33;;;;;;;10.00;5.25;;;;;;;;;;5051431;28;20043;-76
2022/01/15 15:11:02;;;;;;;2.23;1.43;;;;;;;;;;5070462;28;20545;-78